CheckWX is a tool to help pilots better visualize weather data.  It is not intended as a substitute for an official pre-flight weather briefing.

15:33:06 UTC

KCVS METAR
Cannon AFB Airport
Clovis, New Mexico, USA
Current

35 mins ago

KCVS 171458Z AUTO 24011KT 10SM CLR 13/04 A3007 RMK AO2 SLP156 T01330036 53002 $
Observed
Oct-17 @ 14:58 UTC
Wind
  • 240° at 11 KTS
Visibility
10 SM
Flight Rules
VFR
Cloud Levels
  • Clear skies
Temperature
13°C / 55°F
Dewpoint
C / 39°F
Humidity
55%
Altimeter
30.07" Hg
Pressure
1018.32 hPa
Previous

2 hours ago

KCVS 171358Z AUTO 27008KT 10SM CLR 10/02 A3008 RMK AO2 SLP162 T00980017 $
Observed
Oct-17 @ 13:58 UTC
Wind
  • 270° at 8 KTS
Visibility
10 SM
Flight Rules
VFR
Cloud Levels
  • Clear skies
Temperature
10°C / 50°F
Dewpoint
C / 36°F
Humidity
58%
Altimeter
30.08" Hg
Pressure
1018.62 hPa
Previous

3 hours ago

KCVS 171258Z AUTO 27009KT 10SM CLR 09/02 A3006 RMK AO2 SLP155 T00880015 $
Observed
Oct-17 @ 12:58 UTC
Wind
  • 270° at 9 KTS
Visibility
10 SM
Flight Rules
VFR
Cloud Levels
  • Clear skies
Temperature
C / 48°F
Dewpoint
C / 36°F
Humidity
62%
Altimeter
30.06" Hg
Pressure
1017.92 hPa